Portada
METAR-TAF:

METAR-TAF

Aeropuertos :

Abraham Lincoln Capital Airport

Springfield, Illinois, Estados Unidos

latitud: 39-50-43N, longitud: 089-41-02W, altitud: 182 m

Observación

El informe se hizo hace 38 minutos, a las 18:52 UTC
Viento 10 kt del sur
Temperatura 32°C
Humedad 43%
Presión 1022 hPa
Visibilidad: 16.1 km
Escasas nubes a una altura de 6000 ft

METAR: KSPI 191852Z 19010KT 10SM FEW060 32/18 A3019 RMK AO2 SLP217 T03220183

Hora: 14:30 (19:30 UTC)

Pronóstico

El informe se hizo hace 2 horas y 10 minutos, a las 17:20 UTC
Pronóstico válido del 19 a las 18 UTC al 20 a las 18 UTC
Viento 11 kt del sur-suroeste
Visibilidad: 10 km
Nubes dispersas a una altura de 4000 ft
Nubes dispersas a una altura de 12000 ft
A partir de las 20 a las 0100 UTC
Viento 4 kt del sur
Visibilidad: 10 km
Nubes dispersas a una altura de 12000 ft

TAF: KSPI 191720Z 1918/2018 20011KT P6SM SCT040 SCT120 FM200100 17004KT P6SM SCT120

Observaciones y pronósticos meteorológicos de más de 4000 aeropuertos (mensajes METAR y TAF).

Los puntos amarillos y rojos representan las estaciones disponibles.

Ponga el ratón en el punto deseado para ver el nombre de la estación.

Haga clic para ver las observaciones y los pronósticos meteorológicos.

Para cambiar el mapa : haga clic en los botones verdes con una cruz de color negro para hacer un zoom, en el botón verde con un guión para alejar o en las flechas verdes para mapas adyacentes.


METAR-TAF: